Time;durP1;ratioP1;P1;durP2;ratioP2;P2;SDS_P1;SDS_P2;PMS_P1;PMS_P2;Temp;Humidity;BMP_temperature;BMP_pressure;BME280_temperature;BME280_humidity;BME280_pressure;Samples;Min_cycle;Max_cycle;Signal;HPM_P1;HPM_P2
2021/03/10 00:00:14;;;;;;;31.70;16.90;;;4.00;99.90;;;;;;5089501;22;21296;-53
2021/03/10 00:02:41;;;;;;;37.83;18.07;;;3.80;99.90;;;;;;5090583;28;20509;-53
2021/03/10 00:05:09;;;;;;;37.17;16.80;;;4.00;99.90;;;;;;5090432;28;20445;-53
2021/03/10 00:07:36;;;;;;;36.33;16.90;;;4.20;99.90;;;;;;5089563;28;20454;-51
2021/03/10 00:10:04;;;;;;;37.90;16.27;;;4.30;99.90;;;;;;5090274;28;20527;-54
2021/03/10 00:12:31;;;;;;;35.10;17.47;;;4.30;99.90;;;;;;5090302;28;20488;-54
2021/03/10 00:14:58;;;;;;;31.70;17.07;;;4.40;99.90;;;;;;5090240;28;20453;-54
2021/03/10 00:17:25;;;;;;;32.37;16.70;;;4.40;99.90;;;;;;5089462;28;20955;-54
2021/03/10 00:19:51;;;;;;;37.83;17.47;;;4.50;99.90;;;;;;5090320;28;20939;-54
2021/03/10 00:22:18;;;;;;;35.80;16.93;;;4.50;99.90;;;;;;5090495;28;20450;-53
2021/03/10 00:24:45;;;;;;;33.70;16.00;;;4.40;99.90;;;;;;5087628;28;20442;-54
2021/03/10 00:27:23;;;;;;;32.83;15.90;;;4.20;99.90;;;;;;5087837;28;20442;-53
2021/03/10 00:29:54;;;;;;;29.90;15.80;;;4.10;99.90;;;;;;5075544;28;20583;-53
2021/03/10 00:32:20;;;;;;;27.80;15.57;;;4.00;99.90;;;;;;5090309;28;20449;-54
2021/03/10 00:34:47;;;;;;;27.60;14.77;;;4.00;99.90;;;;;;5089989;28;20449;-53
2021/03/10 00:37:14;;;;;;;31.20;15.57;;;4.00;99.90;;;;;;5090032;28;20460;-53
2021/03/10 00:39:41;;;;;;;31.87;15.27;;;4.00;99.90;;;;;;5090458;28;20992;-53
2021/03/10 00:42:07;;;;;;;29.40;14.30;;;4.10;99.90;;;;;;5089708;28;20450;-54
2021/03/10 00:44:34;;;;;;;27.00;14.60;;;4.20;99.90;;;;;;5090064;28;20484;-54
2021/03/10 00:47:01;;;;;;;25.13;14.30;;;4.40;99.90;;;;;;5090491;28;20454;-54
2021/03/10 00:49:28;;;;;;;33.00;15.80;;;4.40;99.90;;;;;;5089855;28;20450;-53
2021/03/10 00:51:54;;;;;;;29.90;15.60;;;4.30;99.90;;;;;;5089495;28;20477;-53
2021/03/10 00:54:21;;;;;;;26.87;14.60;;;4.20;99.90;;;;;;5089975;28;20511;-53
2021/03/10 00:56:47;;;;;;;29.63;15.00;;;4.30;99.90;;;;;;5090178;28;20445;-53
2021/03/10 00:59:14;;;;;;;29.67;15.27;;;4.20;99.90;;;;;;5076166;28;20466;-53
2021/03/10 01:01:40;;;;;;;31.40;15.73;;;4.20;99.90;;;;;;5078277;28;21088;-54
2021/03/10 01:04:11;;;;;;;29.60;14.73;;;4.30;99.90;;;;;;5089971;28;20498;-53
2021/03/10 01:06:37;;;;;;;32.60;15.60;;;4.30;99.90;;;;;;5089581;28;20438;-54
2021/03/10 01:09:05;;;;;;;32.20;15.40;;;4.20;99.90;;;;;;5090044;28;20446;-54
2021/03/10 01:11:32;;;;;;;32.50;16.20;;;4.30;99.90;;;;;;5089708;28;20468;-52
2021/03/10 01:13:58;;;;;;;34.10;16.67;;;4.30;99.90;;;;;;5089906;28;20485;-51
2021/03/10 01:16:25;;;;;;;33.23;17.00;;;4.40;99.90;;;;;;5088129;28;20453;-52
2021/03/10 01:18:52;;;;;;;35.67;18.10;;;4.50;99.90;;;;;;5089649;28;20450;-51
2021/03/10 01:21:19;;;;;;;33.63;17.37;;;4.50;99.90;;;;;;5091557;28;20996;-51
2021/03/10 01:23:46;;;;;;;39.43;20.37;;;4.50;99.90;;;;;;5087420;28;20505;-51
2021/03/10 01:26:12;;;;;;;38.30;17.93;;;4.50;99.90;;;;;;5073221;28;20453;-51
2021/03/10 01:28:40;;;;;;;37.80;18.83;;;4.50;99.90;;;;;;5073162;28;21166;-51
2021/03/10 01:31:07;;;;;;;34.40;17.50;;;4.60;99.90;;;;;;5073179;28;20871;-51
2021/03/10 01:33:33;;;;;;;37.90;19.00;;;4.60;99.90;;;;;;5091448;28;20545;-51
2021/03/10 01:36:00;;;;;;;34.63;18.00;;;4.70;99.90;;;;;;5094797;28;20442;-52
2021/03/10 01:38:27;;;;;;;34.83;17.67;;;4.60;99.90;;;;;;5093244;28;20503;-51
2021/03/10 01:40:54;;;;;;;33.20;18.07;;;4.60;99.90;;;;;;5093205;28;21160;-51
2021/03/10 01:43:20;;;;;;;36.30;18.13;;;4.60;99.90;;;;;;5093363;28;20499;-51
2021/03/10 01:45:47;;;;;;;37.87;19.30;;;4.50;99.90;;;;;;5092776;28;20515;-51
2021/03/10 01:48:16;;;;;;;35.40;18.67;;;4.50;99.90;;;;;;5091375;28;20450;-51
2021/03/10 01:50:43;;;;;;;40.17;19.33;;;4.40;99.90;;;;;;5092648;28;20470;-50
2021/03/10 01:53:10;;;;;;;35.23;18.30;;;4.40;99.90;;;;;;5092823;28;20524;-51
2021/03/10 01:55:37;;;;;;;34.50;17.63;;;4.40;99.90;;;;;;5092887;28;20450;-51
2021/03/10 01:58:03;;;;;;;33.33;17.87;;;4.40;99.90;;;;;;5092831;28;21096;-51
2021/03/10 02:00:30;;;;;;;37.17;18.97;;;4.50;99.90;;;;;;5092657;28;20489;-51
2021/03/10 02:02:57;;;;;;;33.30;18.23;;;4.70;99.90;;;;;;5091593;28;20446;-52
2021/03/10 02:05:25;;;;;;;36.20;18.60;;;4.70;99.90;;;;;;5092282;28;20831;-51
2021/03/10 02:08:19;;;;;;;37.90;20.03;;;4.70;99.90;;;;;;5092735;28;20564;-51
2021/03/10 02:10:59;;;;;;;39.83;18.87;;;4.60;99.90;;;;;;5089459;28;20462;-51
2021/03/10 02:13:34;;;;;;;37.17;19.70;;;4.40;99.90;;;;;;5091948;28;20477;-51
2021/03/10 02:16:05;;;;;;;38.53;18.40;;;4.50;99.90;;;;;;5091616;28;20464;-51
2021/03/10 02:18:40;;;;;;;35.90;18.20;;;4.50;99.90;;;;;;5092587;28;20461;-51
2021/03/10 02:21:19;;;;;;;33.87;18.00;;;4.50;99.90;;;;;;5079998;28;20464;-51
2021/03/10 02:24:03;;;;;;;38.67;19.80;;;4.60;99.90;;;;;;5092017;28;20438;-51
2021/03/10 02:26:40;;;;;;;38.00;18.63;;;4.50;99.90;;;;;;5092334;28;21077;-51
2021/03/10 02:29:13;;;;;;;35.60;19.30;;;4.40;99.90;;;;;;5092430;28;21004;-51
2021/03/10 02:31:45;;;;;;;39.27;19.37;;;4.40;99.90;;;;;;5079172;28;20470;-51
2021/03/10 02:34:13;;;;;;;41.77;19.17;;;4.50;99.90;;;;;;5083179;28;20504;-51
2021/03/10 02:36:41;;;;;;;35.43;20.40;;;4.60;99.90;;;;;;5092037;28;20937;-51
2021/03/10 02:39:10;;;;;;;37.53;18.07;;;4.60;99.90;;;;;;5091744;28;20453;-51
2021/03/10 02:41:36;;;;;;;36.13;18.87;;;4.60;99.90;;;;;;5071773;28;20467;-51
2021/03/10 02:44:05;;;;;;;37.47;19.80;;;4.70;99.90;;;;;;5072160;28;20524;-52
2021/03/10 02:46:33;;;;;;;41.27;19.67;;;4.60;99.90;;;;;;5071406;28;20450;-51
2021/03/10 02:49:00;;;;;;;42.40;20.73;;;4.60;99.90;;;;;;5089831;28;20457;-51
2021/03/10 02:51:27;;;;;;;38.43;20.60;;;4.60;99.90;;;;;;5091899;28;20461;-51
2021/03/10 02:53:56;;;;;;;46.53;20.57;;;4.60;99.90;;;;;;5090713;28;20481;-51
2021/03/10 02:56:22;;;;;;;39.57;20.10;;;4.50;99.90;;;;;;5091045;28;20476;-51
2021/03/10 02:58:49;;;;;;;39.37;19.77;;;4.60;99.90;;;;;;5091195;28;20821;-51
2021/03/10 03:01:16;;;;;;;35.40;19.40;;;4.60;99.90;;;;;;5091055;28;20551;-51
2021/03/10 03:03:43;;;;;;;36.20;20.00;;;4.60;99.90;;;;;;5091175;28;20446;-51
2021/03/10 03:06:10;;;;;;;37.27;19.60;;;4.50;99.90;;;;;;5091281;28;20442;-51
2021/03/10 03:08:37;;;;;;;34.30;19.70;;;4.60;99.90;;;;;;5091281;28;20478;-51
2021/03/10 03:11:04;;;;;;;37.60;18.73;;;4.70;99.90;;;;;;5091294;28;20542;-50
2021/03/10 03:13:32;;;;;;;40.80;21.17;;;4.70;99.90;;;;;;5090426;28;20478;-51
2021/03/10 03:16:00;;;;;;;37.30;19.60;;;4.50;99.90;;;;;;5090876;28;20450;-51
2021/03/10 03:18:27;;;;;;;37.27;19.40;;;4.50;99.90;;;;;;5087597;28;20462;-50
2021/03/10 03:20:56;;;;;;;36.50;20.00;;;4.60;99.90;;;;;;5076426;28;21007;-51
2021/03/10 03:23:24;;;;;;;35.27;18.73;;;4.60;99.90;;;;;;5086033;28;20442;-50
2021/03/10 03:25:51;;;;;;;38.67;18.97;;;4.70;99.90;;;;;;5071258;28;20846;-51
2021/03/10 03:28:20;;;;;;;37.80;19.83;;;4.70;99.90;;;;;;5082563;28;20882;-51
2021/03/10 03:30:48;;;;;;;38.27;18.30;;;4.70;99.90;;;;;;5091341;28;20555;-51
2021/03/10 03:33:17;;;;;;;41.67;20.27;;;4.70;99.90;;;;;;5090984;28;20482;-50
2021/03/10 03:35:45;;;;;;;37.60;19.60;;;4.60;99.90;;;;;;5090103;28;20465;-51
2021/03/10 03:38:13;;;;;;;38.10;19.70;;;4.60;99.90;;;;;;5090994;28;20485;-51
2021/03/10 03:40:40;;;;;;;39.83;20.50;;;4.70;99.90;;;;;;5090762;28;20475;-51
2021/03/10 03:43:08;;;;;;;39.30;20.70;;;4.60;99.90;;;;;;5090623;28;20453;-51
2021/03/10 03:45:35;;;;;;;36.70;20.73;;;4.60;99.90;;;;;;5089842;28;20454;-51
2021/03/10 03:48:03;;;;;;;35.40;19.20;;;4.60;99.90;;;;;;5090998;28;20457;-54
2021/03/10 03:50:30;;;;;;;38.40;19.93;;;4.70;99.90;;;;;;5090630;28;20474;-54
2021/03/10 03:52:56;;;;;;;39.77;20.57;;;4.60;99.90;;;;;;5081523;28;20554;-51
2021/03/10 03:55:24;;;;;;;41.53;20.30;;;4.60;99.90;;;;;;5078643;28;21132;-51
2021/03/10 03:57:50;;;;;;;37.00;18.47;;;4.60;99.90;;;;;;5090688;28;20441;-51
2021/03/10 04:00:23;;;;;;;38.87;19.83;;;4.60;99.90;;;;;;5090360;28;21201;-54
2021/03/10 04:02:50;;;;;;;41.70;21.70;;;4.70;99.90;;;;;;5090071;28;20450;-52
2021/03/10 04:05:18;;;;;;;42.10;21.60;;;4.60;99.90;;;;;;5090146;28;20962;-51
2021/03/10 04:07:48;;;;;;;40.90;21.13;;;4.40;99.90;;;;;;5090435;28;20441;-50
2021/03/10 04:10:15;;;;;;;37.97;21.00;;;4.50;99.90;;;;;;5090656;28;20503;-51
2021/03/10 04:12:43;;;;;;;42.17;21.20;;;4.40;99.90;;;;;;5089856;28;20506;-51
2021/03/10 04:15:12;;;;;;;46.07;21.73;;;4.40;99.90;;;;;;5090164;28;20450;-51
2021/03/10 04:17:39;;;;;;;46.00;23.23;;;4.30;99.90;;;;;;5089836;28;20582;-51
2021/03/10 04:20:11;;;;;;;47.70;22.50;;;4.10;99.90;;;;;;5090370;28;20844;-51
2021/03/10 04:22:38;;;;;;;44.60;21.30;;;4.10;99.90;;;;;;5084932;28;20876;-51
2021/03/10 04:25:07;;;;;;;44.53;21.67;;;4.10;99.90;;;;;;5085000;28;20475;-51
2021/03/10 04:27:34;;;;;;;39.83;19.67;;;4.10;99.90;;;;;;5089794;28;20939;-51
2021/03/10 04:30:02;;;;;;;41.33;21.63;;;4.20;99.90;;;;;;5070247;28;20528;-51
2021/03/10 04:32:28;;;;;;;43.03;20.70;;;4.40;99.90;;;;;;5073435;28;22172;-51
2021/03/10 04:34:55;;;;;;;42.87;20.90;;;4.40;99.90;;;;;;5089103;28;20508;-51
2021/03/10 04:37:21;;;;;;;46.03;22.70;;;4.40;99.90;;;;;;5088884;28;20688;-53
2021/03/10 04:39:48;;;;;;;39.13;20.63;;;4.10;99.90;;;;;;5089438;28;20449;-51
2021/03/10 04:42:14;;;;;;;44.77;22.30;;;4.10;99.90;;;;;;5088100;28;20454;-51
2021/03/10 04:44:41;;;;;;;41.43;22.27;;;4.10;99.90;;;;;;5070592;28;20451;-51
2021/03/10 04:47:09;;;;;;;41.37;21.60;;;4.00;99.90;;;;;;5070262;28;20446;-51
2021/03/10 04:49:35;;;;;;;50.20;23.10;;;4.00;99.90;;;;;;5070470;28;20446;-51
2021/03/10 04:52:02;;;;;;;48.00;22.40;;;3.90;99.90;;;;;;5070469;28;21104;-51
2021/03/10 04:54:28;;;;;;;49.80;21.93;;;3.90;99.90;;;;;;5089422;28;20477;-51
2021/03/10 04:56:55;;;;;;;46.10;23.33;;;3.90;99.90;;;;;;5091568;28;20503;-51
2021/03/10 04:59:21;;;;;;;53.57;22.20;;;3.80;99.90;;;;;;5093403;28;20461;-52
2021/03/10 05:01:48;;;;;;;45.03;22.47;;;3.90;99.90;;;;;;5093372;28;20715;-50
2021/03/10 05:04:16;;;;;;;45.63;22.93;;;4.00;99.90;;;;;;5091027;28;20445;-50
2021/03/10 05:06:42;;;;;;;51.73;25.00;;;3.90;99.90;;;;;;5093829;28;20457;-53
2021/03/10 05:09:09;;;;;;;47.50;23.07;;;3.90;99.90;;;;;;5094048;28;20453;-54
2021/03/10 05:11:35;;;;;;;50.17;22.70;;;3.90;99.90;;;;;;5094539;28;20523;-51
2021/03/10 05:14:02;;;;;;;51.27;23.20;;;4.00;99.90;;;;;;5090008;28;20484;-53
2021/03/10 05:16:28;;;;;;;49.17;23.57;;;4.10;99.90;;;;;;5076482;28;20457;-53
2021/03/10 05:18:55;;;;;;;50.37;23.40;;;4.00;99.90;;;;;;5073744;28;20955;-54
2021/03/10 05:21:22;;;;;;;43.60;21.63;;;4.00;99.90;;;;;;5077996;28;21052;-54
2021/03/10 05:23:49;;;;;;;47.50;23.07;;;3.90;99.90;;;;;;5073637;28;20982;-54
2021/03/10 05:26:16;;;;;;;46.20;23.30;;;3.90;99.90;;;;;;5073207;28;20460;-50
2021/03/10 05:28:42;;;;;;;52.80;24.40;;;3.90;99.90;;;;;;5079440;28;20477;-51
2021/03/10 05:31:09;;;;;;;50.17;25.43;;;3.90;99.90;;;;;;5083975;28;21020;-51
2021/03/10 05:33:36;;;;;;;48.47;23.73;;;4.10;99.90;;;;;;5084824;28;20756;-51
2021/03/10 05:36:03;;;;;;;52.40;24.07;;;4.30;99.90;;;;;;5086139;28;20580;-51
2021/03/10 05:41:11;;;;;;;52.30;24.30;;;4.20;99.90;;;;;;5107237;27;20997;-52
2021/03/10 05:43:38;;;;;;;51.40;25.30;;;4.10;99.90;;;;;;5103733;28;20457;-52
2021/03/10 05:46:05;;;;;;;49.10;23.60;;;4.10;99.90;;;;;;5102077;28;20445;-52
2021/03/10 05:48:32;;;;;;;48.27;24.10;;;4.10;99.90;;;;;;5089408;28;20449;-52
2021/03/10 05:50:58;;;;;;;48.00;24.23;;;4.10;99.90;;;;;;5093175;28;20461;-52
2021/03/10 05:53:28;;;;;;;42.57;23.00;;;4.00;99.90;;;;;;5092158;28;20456;-52
2021/03/10 05:55:59;;;;;;;46.20;23.87;;;4.10;99.90;;;;;;5087501;28;20931;-52
2021/03/10 05:58:27;;;;;;;52.70;23.30;;;4.00;99.90;;;;;;5086460;28;20457;-52
2021/03/10 06:00:53;;;;;;;46.00;22.80;;;3.90;99.90;;;;;;5086162;22;21010;-48
2021/03/10 06:03:20;;;;;;;48.37;22.80;;;3.80;99.90;;;;;;5030345;28;20510;-48
2021/03/10 06:05:46;;;;;;;51.53;23.43;;;4.00;99.90;;;;;;5041535;28;20452;-48
2021/03/10 06:08:15;;;;;;;44.80;23.53;;;4.20;99.90;;;;;;5045655;28;20447;-48
2021/03/10 06:10:43;;;;;;;44.23;23.47;;;4.20;99.90;;;;;;5036952;28;20990;-48
2021/03/10 06:13:21;;;;;;;43.63;23.67;;;4.30;99.90;;;;;;5012658;28;20459;-48
2021/03/10 06:15:49;;;;;;;48.50;24.20;;;4.30;99.90;;;;;;5025675;28;20444;-48
2021/03/10 06:18:27;;;;;;;48.20;23.87;;;4.30;99.90;;;;;;5009082;28;20452;-48
2021/03/10 06:21:10;;;;;;;46.60;23.10;;;4.30;99.90;;;;;;5007054;28;20652;-48
2021/03/10 06:23:38;;;;;;;43.87;22.60;;;4.40;99.90;;;;;;5007622;28;20453;-47
2021/03/10 06:26:05;;;;;;;58.53;26.57;;;4.50;99.90;;;;;;5025785;28;20459;-47
2021/03/10 06:28:36;;;;;;;60.03;27.70;;;4.70;99.90;;;;;;5007449;28;20446;-48
2021/03/10 06:31:03;;;;;;;48.03;23.70;;;4.80;99.90;;;;;;5007007;28;20489;-48
2021/03/10 06:33:30;;;;;;;48.40;24.10;;;4.90;99.90;;;;;;5006875;28;20450;-47
2021/03/10 06:35:56;;;;;;;44.93;23.47;;;4.90;99.90;;;;;;5020576;28;20596;-47
2021/03/10 06:38:23;;;;;;;48.53;23.30;;;5.10;99.90;;;;;;5009081;28;20456;-48
2021/03/10 06:40:51;;;;;;;48.53;24.30;;;5.10;99.90;;;;;;5014335;28;20978;-49
2021/03/10 06:43:18;;;;;;;45.90;23.63;;;5.00;99.90;;;;;;5025701;28;20448;-48
2021/03/10 06:45:45;;;;;;;50.47;24.43;;;4.80;99.90;;;;;;5024611;28;20444;-48
2021/03/10 06:48:20;;;;;;;48.10;23.17;;;4.60;99.90;;;;;;5025184;28;20449;-47
2021/03/10 06:50:46;;;;;;;49.27;24.27;;;4.90;99.90;;;;;;5021449;28;21003;-49
2021/03/10 06:53:13;;;;;;;46.70;23.10;;;5.00;99.90;;;;;;5003015;28;20951;-48
2021/03/10 06:55:41;;;;;;;48.80;23.17;;;5.00;99.90;;;;;;5002990;28;20453;-48
2021/03/10 06:58:09;;;;;;;46.93;23.90;;;5.20;99.90;;;;;;5001579;28;21002;-48
2021/03/10 07:00:36;;;;;;;49.67;23.93;;;5.20;99.90;;;;;;4993265;28;20474;-48
2021/03/10 07:03:04;;;;;;;45.83;24.07;;;5.10;99.90;;;;;;4993757;28;20447;-48
2021/03/10 07:05:32;;;;;;;46.93;23.80;;;5.10;99.90;;;;;;4994017;28;20451;-48
2021/03/10 07:07:59;;;;;;;46.47;22.90;;;5.20;99.90;;;;;;4997676;28;20465;-47
2021/03/10 07:10:28;;;;;;;44.97;23.00;;;5.20;99.90;;;;;;4993052;28;20489;-48
2021/03/10 07:12:59;;;;;;;47.60;23.73;;;5.20;99.90;;;;;;4999078;28;20881;-48
2021/03/10 07:15:26;;;;;;;51.00;23.70;;;5.10;99.90;;;;;;4991185;28;20458;-47
2021/03/10 07:17:53;;;;;;;50.33;24.53;;;5.00;99.90;;;;;;4991764;28;20442;-49
2021/03/10 07:20:21;;;;;;;46.40;23.57;;;5.00;99.90;;;;;;4992893;28;20489;-48
2021/03/10 07:22:56;;;;;;;54.77;24.53;;;5.00;99.90;;;;;;4992257;28;20480;-48
2021/03/10 07:25:27;;;;;;;46.27;23.33;;;4.90;99.90;;;;;;4991976;28;20802;-48
2021/03/10 07:27:59;;;;;;;46.33;24.10;;;5.20;99.90;;;;;;4992557;28;20466;-48
2021/03/10 07:30:43;;;;;;;45.70;23.90;;;5.20;99.90;;;;;;4992337;28;20486;-48
2021/03/10 07:33:11;;;;;;;48.23;23.40;;;5.10;99.90;;;;;;4997182;28;20842;-48
2021/03/10 07:35:52;;;;;;;50.03;24.77;;;5.20;99.90;;;;;;4992789;28;20836;-48
2021/03/10 07:38:20;;;;;;;53.00;25.33;;;5.20;99.90;;;;;;4995434;28;20453;-48
2021/03/10 07:40:54;;;;;;;50.53;25.43;;;5.20;99.90;;;;;;5012034;28;21049;-48
2021/03/10 07:43:22;;;;;;;50.43;25.57;;;5.50;99.90;;;;;;5011883;28;20448;-48
2021/03/10 07:45:48;;;;;;;49.17;25.67;;;5.70;99.90;;;;;;5011869;28;20533;-48
2021/03/10 07:48:15;;;;;;;46.07;23.90;;;5.80;99.90;;;;;;5012049;28;20456;-48
2021/03/10 07:50:44;;;;;;;51.03;25.03;;;6.10;99.90;;;;;;5007257;28;20996;-48
2021/03/10 07:53:11;;;;;;;47.20;24.50;;;6.50;99.90;;;;;;4996482;28;20462;-48
2021/03/10 07:55:45;;;;;;;49.53;23.73;;;6.80;99.90;;;;;;5011361;28;20488;-47
2021/03/10 07:58:12;;;;;;;43.77;23.67;;;7.00;99.90;;;;;;5003675;28;20511;-47
2021/03/10 08:00:40;;;;;;;48.07;23.23;;;7.10;99.90;;;;;;5011446;28;20469;-47
2021/03/10 08:03:07;;;;;;;48.60;23.73;;;6.90;99.90;;;;;;5010737;28;20454;-47
2021/03/10 08:05:34;;;;;;;46.70;23.80;;;7.00;99.90;;;;;;5006206;28;20458;-47
2021/03/10 08:08:08;;;;;;;45.77;23.97;;;7.40;99.90;;;;;;5007523;28;20549;-47
2021/03/10 08:10:35;;;;;;;49.47;23.33;;;7.90;99.90;;;;;;5007267;28;20485;-47
2021/03/10 08:13:14;;;;;;;41.47;23.20;;;8.30;99.90;;;;;;5005939;28;20469;-47
2021/03/10 08:15:41;;;;;;;39.47;22.33;;;8.70;99.90;;;;;;4999391;28;20465;-47
2021/03/10 08:18:07;;;;;;;49.33;23.27;;;8.60;99.90;;;;;;4999408;28;20471;-47
2021/03/10 08:20:35;;;;;;;49.50;24.27;;;8.40;99.90;;;;;;5001216;28;20473;-47
2021/03/10 08:23:03;;;;;;;43.17;23.70;;;8.20;99.90;;;;;;5001872;28;20469;-47
2021/03/10 08:25:29;;;;;;;43.73;23.37;;;8.00;99.90;;;;;;4997273;28;20473;-48
2021/03/10 08:27:56;;;;;;;42.43;23.60;;;8.10;99.90;;;;;;5010695;28;20448;-48
2021/03/10 08:30:25;;;;;;;44.63;23.77;;;8.20;99.90;;;;;;4995463;28;20491;-48
2021/03/10 08:33:02;;;;;;;42.73;23.17;;;8.50;99.90;;;;;;5008448;28;20458;-49
2021/03/10 08:35:28;;;;;;;38.53;22.17;;;9.10;99.90;;;;;;4996485;28;20947;-48
2021/03/10 08:37:56;;;;;;;44.27;23.40;;;9.00;99.90;;;;;;4991612;28;20515;-49
2021/03/10 08:40:25;;;;;;;42.43;22.97;;;9.00;99.90;;;;;;4991327;28;20466;-48
2021/03/10 08:42:52;;;;;;;43.10;23.27;;;9.10;99.90;;;;;;5000315;28;20469;-48
2021/03/10 08:45:24;;;;;;;36.60;22.13;;;9.00;99.90;;;;;;5009581;28;20467;-48
2021/03/10 08:47:58;;;;;;;39.23;23.00;;;9.10;99.90;;;;;;5000167;28;20460;-48
2021/03/10 08:50:29;;;;;;;44.17;22.53;;;9.40;99.90;;;;;;5005456;28;20490;-48
2021/03/10 08:52:56;;;;;;;40.27;21.87;;;9.60;99.90;;;;;;4997107;28;20871;-48
2021/03/10 08:55:25;;;;;;;37.77;20.70;;;9.70;99.90;;;;;;4999039;28;20450;-48
2021/03/10 08:57:52;;;;;;;40.40;21.90;;;9.80;99.90;;;;;;5000812;28;20860;-48
2021/03/10 09:00:21;;;;;;;39.10;22.00;;;9.80;99.90;;;;;;5004861;28;20504;-49
2021/03/10 09:02:50;;;;;;;39.23;21.00;;;10.10;99.90;;;;;;5000970;28;20464;-48
2021/03/10 09:05:17;;;;;;;36.67;21.60;;;10.30;99.90;;;;;;5001132;28;20464;-49
2021/03/10 09:07:47;;;;;;;38.53;21.97;;;10.50;99.90;;;;;;5010137;28;20468;-48
2021/03/10 09:10:17;;;;;;;37.03;23.20;;;10.90;99.90;;;;;;5006678;28;20592;-48
2021/03/10 09:12:46;;;;;;;40.77;22.57;;;11.10;99.90;;;;;;4999936;28;20442;-48
2021/03/10 09:15:14;;;;;;;34.57;21.00;;;11.70;99.90;;;;;;5010129;28;20457;-48
2021/03/10 09:17:41;;;;;;;38.10;21.90;;;11.20;99.90;;;;;;4994189;28;20458;-49
2021/03/10 09:20:12;;;;;;;35.03;21.20;;;11.10;99.90;;;;;;4990929;28;20454;-49
2021/03/10 09:22:45;;;;;;;36.10;21.20;;;11.10;99.90;;;;;;4997840;28;20453;-48
2021/03/10 09:25:14;;;;;;;34.20;19.50;;;11.10;99.90;;;;;;5010551;28;20445;-48
2021/03/10 09:27:40;;;;;;;39.47;22.17;;;10.90;99.90;;;;;;5009160;28;20517;-48
2021/03/10 09:30:11;;;;;;;39.33;20.80;;;10.70;99.90;;;;;;4999981;28;20954;-49
2021/03/10 09:32:42;;;;;;;34.67;20.53;;;10.40;99.90;;;;;;5005052;28;20473;-49
2021/03/10 09:35:18;;;;;;;36.37;20.80;;;11.20;99.90;;;;;;5001377;28;20465;-49
2021/03/10 09:37:48;;;;;;;37.63;20.07;;;11.70;99.90;;;;;;5007185;28;20466;-49
2021/03/10 09:40:16;;;;;;;38.00;21.50;;;12.40;99.90;;;;;;5009502;28;20482;-49
2021/03/10 09:42:46;;;;;;;36.17;21.43;;;12.40;99.90;;;;;;5004393;28;20465;-48
2021/03/10 09:45:22;;;;;;;37.40;21.33;;;11.80;99.90;;;;;;5001802;28;20465;-49
2021/03/10 09:47:50;;;;;;;39.90;22.80;;;11.60;99.90;;;;;;5007617;28;21013;-49
2021/03/10 09:50:26;;;;;;;36.60;20.93;;;11.40;99.90;;;;;;5008164;28;20501;-49
2021/03/10 09:52:53;;;;;;;37.53;21.77;;;11.10;99.90;;;;;;5007930;28;20872;-49
2021/03/10 09:55:22;;;;;;;37.70;21.77;;;10.00;99.90;;;;;;5009992;28;20457;-48
2021/03/10 09:57:48;;;;;;;38.53;21.17;;;10.00;99.90;;;;;;5000107;28;20952;-48
2021/03/10 10:00:19;;;;;;;34.27;20.40;;;9.40;99.90;;;;;;4989600;28;20482;-48
2021/03/10 10:02:46;;;;;;;37.73;21.80;;;9.30;99.90;;;;;;5001282;28;20461;-49
2021/03/10 10:05:22;;;;;;;35.90;21.10;;;8.90;99.90;;;;;;5009426;28;20473;-48
2021/03/10 10:07:49;;;;;;;42.80;21.57;;;8.90;99.90;;;;;;4999509;28;21053;-49
2021/03/10 10:10:16;;;;;;;36.67;18.90;;;8.90;99.90;;;;;;5006404;28;20543;-48
2021/03/10 10:12:44;;;;;;;32.73;18.70;;;9.00;99.90;;;;;;4997917;28;20545;-48
2021/03/10 10:15:14;;;;;;;40.30;20.47;;;9.00;99.90;;;;;;5006019;28;20469;-49
2021/03/10 10:17:42;;;;;;;33.27;18.93;;;9.10;99.90;;;;;;5007324;28;20461;-49
2021/03/10 10:20:11;;;;;;;40.43;18.87;;;9.20;99.90;;;;;;5008268;28;20458;-48
2021/03/10 10:22:37;;;;;;;34.83;19.83;;;9.30;99.90;;;;;;5004538;28;20496;-49
2021/03/10 10:25:06;;;;;;;41.20;18.83;;;9.10;99.90;;;;;;5006243;28;20479;-48
2021/03/10 10:27:33;;;;;;;30.20;17.37;;;9.00;99.90;;;;;;4998083;28;20459;-47
2021/03/10 10:29:59;;;;;;;31.30;16.80;;;8.90;99.90;;;;;;5013207;28;20926;-48
2021/03/10 10:32:25;;;;;;;35.50;17.20;;;9.10;99.90;;;;;;5011990;28;20465;-48
2021/03/10 10:34:54;;;;;;;32.47;17.40;;;9.90;99.90;;;;;;5011388;28;20461;-49
2021/03/10 10:37:21;;;;;;;32.37;18.27;;;10.80;99.90;;;;;;5009580;28;20511;-48
2021/03/10 10:39:47;;;;;;;33.73;19.47;;;11.20;99.90;;;;;;5013468;28;20462;-49
2021/03/10 10:42:15;;;;;;;33.40;18.80;;;11.00;99.90;;;;;;5012411;28;20489;-49
2021/03/10 10:44:41;;;;;;;33.37;18.27;;;10.80;99.90;;;;;;5011480;28;20472;-48
2021/03/10 10:47:08;;;;;;;31.60;17.40;;;10.80;99.90;;;;;;5013455;28;20453;-48
2021/03/10 10:49:34;;;;;;;33.63;18.97;;;10.50;99.90;;;;;;5012394;28;20481;-48
2021/03/10 10:52:01;;;;;;;31.20;17.93;;;10.30;99.90;;;;;;5012330;28;20477;-49
2021/03/10 10:54:27;;;;;;;28.50;15.40;;;10.00;99.90;;;;;;5011462;28;20492;-49
2021/03/10 10:56:54;;;;;;;26.83;16.20;;;9.40;99.90;;;;;;5008887;28;20878;-48
2021/03/10 10:59:21;;;;;;;28.57;16.17;;;9.30;99.90;;;;;;4996446;28;20466;-48
2021/03/10 11:01:48;;;;;;;27.67;16.00;;;9.20;99.90;;;;;;5005397;28;20501;-49
2021/03/10 11:04:17;;;;;;;31.37;17.23;;;9.20;99.90;;;;;;5009432;28;20461;-48
2021/03/10 11:06:44;;;;;;;27.83;17.23;;;9.10;99.90;;;;;;5005809;28;20461;-47
2021/03/10 11:09:13;;;;;;;32.20;16.57;;;9.10;99.90;;;;;;5010285;28;20893;-48
2021/03/10 11:11:40;;;;;;;28.37;16.17;;;9.40;99.90;;;;;;5013340;28;20620;-48
2021/03/10 11:14:07;;;;;;;26.87;15.93;;;9.60;99.90;;;;;;5003751;28;20470;-48
2021/03/10 11:16:34;;;;;;;28.20;17.00;;;9.80;99.90;;;;;;5017359;28;20453;-49
2021/03/10 11:19:01;;;;;;;27.60;15.93;;;9.80;99.90;;;;;;5012969;28;20454;-48
2021/03/10 11:21:27;;;;;;;29.37;17.00;;;10.00;99.90;;;;;;5012897;28;20466;-49
2021/03/10 11:23:54;;;;;;;27.27;15.60;;;9.90;99.90;;;;;;5008897;28;20461;-49
2021/03/10 11:26:20;;;;;;;20.70;11.83;;;10.10;99.90;;;;;;5001637;28;20525;-49
2021/03/10 11:28:46;;;;;;;21.33;12.37;;;10.10;99.90;;;;;;4993112;28;20977;-48
2021/03/10 11:31:13;;;;;;;18.70;11.37;;;10.30;99.90;;;;;;5000286;28;20485;-48
2021/03/10 11:33:40;;;;;;;17.73;10.07;;;10.40;99.90;;;;;;5000576;28;20466;-49
2021/03/10 11:36:08;;;;;;;16.30;9.87;;;11.20;99.90;;;;;;5004361;28;20471;-48
2021/03/10 11:38:35;;;;;;;18.73;10.50;;;11.20;99.90;;;;;;4993171;28;20446;-48
2021/03/10 11:41:02;;;;;;;18.53;10.67;;;10.90;99.90;;;;;;5002472;28;20485;-49
2021/03/10 11:43:30;;;;;;;19.90;11.30;;;10.90;99.90;;;;;;5002128;28;20469;-49
2021/03/10 11:45:58;;;;;;;17.80;10.87;;;10.90;99.90;;;;;;4998222;28;20466;-49
2021/03/10 11:48:24;;;;;;;17.70;9.97;;;11.10;99.90;;;;;;5004786;28;20472;-49
2021/03/10 11:50:52;;;;;;;20.07;10.73;;;11.20;99.90;;;;;;5012252;28;20630;-48
2021/03/10 11:53:18;;;;;;;16.67;9.50;;;11.10;99.90;;;;;;4999147;28;20560;-49
2021/03/10 11:55:45;;;;;;;18.57;10.60;;;11.10;99.90;;;;;;5002927;28;20457;-48
2021/03/10 11:58:12;;;;;;;17.40;10.23;;;11.10;99.90;;;;;;5004748;28;20471;-50
2021/03/10 12:00:39;;;;;;;17.30;10.80;;;11.10;99.90;;;;;;5035796;22;20496;-51
2021/03/10 12:03:06;;;;;;;21.77;11.57;;;11.30;99.90;;;;;;5030040;28;21071;-51
2021/03/10 12:05:32;;;;;;;22.37;12.60;;;11.30;99.90;;;;;;5030967;28;20981;-50
2021/03/10 12:08:00;;;;;;;18.20;11.10;;;11.10;99.90;;;;;;5030409;28;20977;-54
2021/03/10 12:10:26;;;;;;;19.20;11.20;;;10.50;99.90;;;;;;5032138;28;20510;-53
2021/03/10 12:12:53;;;;;;;17.77;10.30;;;10.00;99.90;;;;;;5009850;28;20496;-54
2021/03/10 12:15:19;;;;;;;19.97;11.80;;;10.00;99.90;;;;;;5011246;28;20496;-53
2021/03/10 12:17:46;;;;;;;21.43;11.87;;;10.30;99.90;;;;;;5011553;28;20453;-53
2021/03/10 12:20:13;;;;;;;20.53;11.10;;;10.80;99.90;;;;;;5011246;28;20527;-55
2021/03/10 12:22:40;;;;;;;18.47;11.40;;;11.20;99.90;;;;;;5009800;28;20496;-54
2021/03/10 12:25:09;;;;;;;19.33;10.73;;;11.40;99.90;;;;;;5011685;28;20876;-52
2021/03/10 12:27:35;;;;;;;17.33;10.70;;;11.50;99.90;;;;;;5011457;28;20537;-54
2021/03/10 12:30:02;;;;;;;18.97;10.90;;;11.70;99.90;;;;;;5010915;28;20799;-54
2021/03/10 12:32:29;;;;;;;19.90;11.30;;;11.60;99.90;;;;;;5010716;28;20564;-53
2021/03/10 12:34:56;;;;;;;18.43;11.03;;;11.00;99.90;;;;;;5009955;28;20851;-54
2021/03/10 12:37:23;;;;;;;15.63;9.37;;;10.70;99.90;;;;;;5011633;28;20449;-52
2021/03/10 12:39:50;;;;;;;18.83;10.87;;;10.70;99.90;;;;;;5010580;28;20445;-52
2021/03/10 12:42:17;;;;;;;20.80;11.60;;;10.60;99.90;;;;;;5010719;28;20485;-54